sensor_id;sensor_type;location;lat;lon;timestamp;noise_LAeq;noise_LA_min;noise_LA_max;noise_LA01;noise_LA95
72858;Laerm;62742;52.136;4.500;2023-10-09T00:02:12;46.72;35.29;58.31;;
72858;Laerm;62742;52.136;4.500;2023-10-09T00:04:43;47.33;35.41;60.03;;
72858;Laerm;62742;52.136;4.500;2023-10-09T00:07:13;46.49;35.85;60.74;;
72858;Laerm;62742;52.136;4.500;2023-10-09T00:09:43;46.95;35.73;61.13;;
72858;Laerm;62742;52.136;4.500;2023-10-09T00:12:17;46.33;35.25;60.75;;
72858;Laerm;62742;52.136;4.500;2023-10-09T00:14:49;45.82;35.58;60.57;;
72858;Laerm;62742;52.136;4.500;2023-10-09T00:17:17;46.70;35.32;62.07;;
72858;Laerm;62742;52.136;4.500;2023-10-09T00:19:46;45.45;35.50;61.01;;
72858;Laerm;62742;52.136;4.500;2023-10-09T00:22:21;45.14;35.31;61.11;;
72858;Laerm;62742;52.136;4.500;2023-10-09T00:24:50;45.15;35.58;61.62;;
72858;Laerm;62742;52.136;4.500;2023-10-09T00:27:43;43.95;35.83;59.99;;
72858;Laerm;62742;52.136;4.500;2023-10-09T00:30:17;43.22;36.00;59.17;;
72858;Laerm;62742;52.136;4.500;2023-10-09T00:32:55;43.13;35.74;58.73;;
72858;Laerm;62742;52.136;4.500;2023-10-09T00:35:26;43.05;36.03;59.89;;
72858;Laerm;62742;52.136;4.500;2023-10-09T00:38:21;42.03;35.32;58.78;;
72858;Laerm;62742;52.136;4.500;2023-10-09T00:40:52;41.67;35.39;57.74;;
72858;Laerm;62742;52.136;4.500;2023-10-09T00:43:23;41.64;35.10;55.87;;
72858;Laerm;62742;52.136;4.500;2023-10-09T00:45:56;41.45;35.56;55.14;;
72858;Laerm;62742;52.136;4.500;2023-10-09T00:48:36;41.46;35.89;55.17;;
72858;Laerm;62742;52.136;4.500;2023-10-09T00:51:08;41.55;35.58;55.85;;
72858;Laerm;62742;52.136;4.500;2023-10-09T00:53:49;41.48;35.67;55.66;;
72858;Laerm;62742;52.136;4.500;2023-10-09T00:56:23;41.62;35.39;56.07;;
72858;Laerm;62742;52.136;4.500;2023-10-09T00:59:00;41.72;35.79;56.33;;
72858;Laerm;62742;52.136;4.500;2023-10-09T01:01:36;41.80;35.77;56.84;;
72858;Laerm;62742;52.136;4.500;2023-10-09T01:04:07;42.26;35.83;55.58;;
72858;Laerm;62742;52.136;4.500;2023-10-09T01:06:41;42.53;35.95;56.43;;
72858;Laerm;62742;52.136;4.500;2023-10-09T01:09:15;42.33;35.46;57.64;;
72858;Laerm;62742;52.136;4.500;2023-10-09T01:11:46;42.78;35.94;56.76;;
72858;Laerm;62742;52.136;4.500;2023-10-09T01:14:31;42.58;35.16;57.35;;
72858;Laerm;62742;52.136;4.500;2023-10-09T01:17:06;40.86;36.40;43.30;;
72858;Laerm;62742;52.136;4.500;2023-10-09T01:19:35;40.75;36.50;43.14;;
72858;Laerm;62742;52.136;4.500;2023-10-09T01:22:02;40.73;36.30;42.94;;
72858;Laerm;62742;52.136;4.500;2023-10-09T01:24:39;40.70;36.33;43.14;;
72858;Laerm;62742;52.136;4.500;2023-10-09T01:27:06;40.71;36.33;43.11;;
72858;Laerm;62742;52.136;4.500;2023-10-09T01:29:42;40.67;35.80;43.06;;
72858;Laerm;62742;52.136;4.500;2023-10-09T01:32:10;40.73;36.54;43.19;;
72858;Laerm;62742;52.136;4.500;2023-10-09T01:34:43;40.90;35.92;43.35;;
72858;Laerm;62742;52.136;4.500;2023-10-09T01:37:16;40.32;34.93;43.43;;
72858;Laerm;62742;52.136;4.500;2023-10-09T01:39:50;40.36;35.60;43.21;;
72858;Laerm;62742;52.136;4.500;2023-10-09T01:42:19;40.68;36.16;43.03;;
72858;Laerm;62742;52.136;4.500;2023-10-09T01:45:12;40.57;36.22;43.45;;
72858;Laerm;62742;52.136;4.500;2023-10-09T01:47:54;40.65;36.61;42.88;;
72858;Laerm;62742;52.136;4.500;2023-10-09T01:50:21;40.55;36.21;43.05;;
72858;Laerm;62742;52.136;4.500;2023-10-09T01:52:57;40.34;35.41;42.97;;
72858;Laerm;62742;52.136;4.500;2023-10-09T01:55:31;40.50;36.10;43.33;;
72858;Laerm;62742;52.136;4.500;2023-10-09T01:58:07;40.91;36.53;43.24;;
72858;Laerm;62742;52.136;4.500;2023-10-09T02:00:50;40.92;37.04;43.30;;
72858;Laerm;62742;52.136;4.500;2023-10-09T02:03:23;40.64;35.36;43.60;;
72858;Laerm;62742;52.136;4.500;2023-10-09T02:05:51;40.27;34.81;43.34;;
72858;Laerm;62742;52.136;4.500;2023-10-09T02:08:19;40.53;35.77;43.19;;
72858;Laerm;62742;52.136;4.500;2023-10-09T02:10:53;40.65;36.34;43.33;;
72858;Laerm;62742;52.136;4.500;2023-10-09T02:13:23;40.72;35.93;43.38;;
72858;Laerm;62742;52.136;4.500;2023-10-09T02:15:58;40.59;35.36;43.17;;
72858;Laerm;62742;52.136;4.500;2023-10-09T02:18:40;40.69;36.01;43.25;;
72858;Laerm;62742;52.136;4.500;2023-10-09T02:21:19;40.95;36.44;43.16;;
72858;Laerm;62742;52.136;4.500;2023-10-09T02:23:59;40.89;35.89;43.24;;
72858;Laerm;62742;52.136;4.500;2023-10-09T02:26:30;40.56;35.18;43.46;;
72858;Laerm;62742;52.136;4.500;2023-10-09T02:28:59;40.48;35.08;43.72;;
72858;Laerm;62742;52.136;4.500;2023-10-09T02:31:31;40.50;35.30;43.44;;
72858;Laerm;62742;52.136;4.500;2023-10-09T02:34:07;40.52;35.54;43.47;;
72858;Laerm;62742;52.136;4.500;2023-10-09T02:36:38;40.46;35.84;43.20;;
72858;Laerm;62742;52.136;4.500;2023-10-09T02:39:11;40.64;34.61;44.06;;
72858;Laerm;62742;52.136;4.500;2023-10-09T02:41:51;41.05;36.03;44.18;;
72858;Laerm;62742;52.136;4.500;2023-10-09T02:44:21;40.70;36.32;43.13;;
72858;Laerm;62742;52.136;4.500;2023-10-09T02:46:52;40.60;35.01;43.65;;
72858;Laerm;62742;52.136;4.500;2023-10-09T02:49:24;40.55;35.54;43.13;;
72858;Laerm;62742;52.136;4.500;2023-10-09T02:51:52;40.47;34.94;43.16;;
72858;Laerm;62742;52.136;4.500;2023-10-09T02:54:19;40.68;34.61;43.01;;
72858;Laerm;62742;52.136;4.500;2023-10-09T02:56:51;40.85;36.45;43.30;;
72858;Laerm;62742;52.136;4.500;2023-10-09T02:59:34;40.86;36.76;43.79;;
72858;Laerm;62742;52.136;4.500;2023-10-09T03:02:04;40.75;35.90;43.52;;
72858;Laerm;62742;52.136;4.500;2023-10-09T03:04:31;40.72;35.84;43.39;;
72858;Laerm;62742;52.136;4.500;2023-10-09T03:06:58;40.72;35.74;43.54;;
72858;Laerm;62742;52.136;4.500;2023-10-09T03:09:25;40.76;35.53;43.58;;
72858;Laerm;62742;52.136;4.500;2023-10-09T03:12:02;40.66;35.44;43.53;;
72858;Laerm;62742;52.136;4.500;2023-10-09T03:14:31;40.66;35.79;43.72;;
72858;Laerm;62742;52.136;4.500;2023-10-09T03:16:58;40.74;35.55;43.40;;
72858;Laerm;62742;52.136;4.500;2023-10-09T03:19:26;40.76;36.15;43.42;;
72858;Laerm;62742;52.136;4.500;2023-10-09T03:21:52;40.62;36.38;43.40;;
72858;Laerm;62742;52.136;4.500;2023-10-09T03:24:19;40.70;36.26;43.04;;
72858;Laerm;62742;52.136;4.500;2023-10-09T03:26:48;40.79;35.75;43.55;;
72858;Laerm;62742;52.136;4.500;2023-10-09T03:29:16;41.18;36.37;43.48;;
72858;Laerm;62742;52.136;4.500;2023-10-09T03:31:45;40.84;36.30;43.46;;
72858;Laerm;62742;52.136;4.500;2023-10-09T03:34:12;40.60;36.10;43.12;;
72858;Laerm;62742;52.136;4.500;2023-10-09T03:36:39;40.60;36.19;43.08;;
72858;Laerm;62742;52.136;4.500;2023-10-09T03:39:06;40.62;35.98;43.44;;
72858;Laerm;62742;52.136;4.500;2023-10-09T03:41:52;40.77;36.88;43.45;;
72858;Laerm;62742;52.136;4.500;2023-10-09T03:44:20;40.78;36.53;44.31;;
72858;Laerm;62742;52.136;4.500;2023-10-09T03:46:48;40.78;36.83;44.17;;
72858;Laerm;62742;52.136;4.500;2023-10-09T03:49:17;40.82;36.52;43.96;;
72858;Laerm;62742;52.136;4.500;2023-10-09T03:51:50;40.76;36.03;43.69;;
72858;Laerm;62742;52.136;4.500;2023-10-09T03:54:16;40.72;36.43;43.69;;
72858;Laerm;62742;52.136;4.500;2023-10-09T03:56:47;40.71;35.94;44.04;;
72858;Laerm;62742;52.136;4.500;2023-10-09T03:59:23;40.77;36.39;44.17;;
72858;Laerm;62742;52.136;4.500;2023-10-09T04:01:52;40.71;36.57;43.83;;
72858;Laerm;62742;52.136;4.500;2023-10-09T04:04:19;40.61;35.91;43.67;;
72858;Laerm;62742;52.136;4.500;2023-10-09T04:06:49;40.72;35.83;44.17;;
72858;Laerm;62742;52.136;4.500;2023-10-09T04:09:17;40.75;35.98;44.16;;
72858;Laerm;62742;52.136;4.500;2023-10-09T04:11:54;40.68;35.67;44.75;;
72858;Laerm;62742;52.136;4.500;2023-10-09T04:14:43;40.75;36.22;44.20;;
72858;Laerm;62742;52.136;4.500;2023-10-09T04:17:28;40.65;35.97;43.83;;
72858;Laerm;62742;52.136;4.500;2023-10-09T04:20:02;40.72;36.28;43.66;;
72858;Laerm;62742;52.136;4.500;2023-10-09T04:22:45;40.63;36.03;43.09;;
72858;Laerm;62742;52.136;4.500;2023-10-09T04:25:26;40.66;36.56;43.10;;
72858;Laerm;62742;52.136;4.500;2023-10-09T04:27:58;40.78;36.21;43.30;;
72858;Laerm;62742;52.136;4.500;2023-10-09T04:30:45;40.70;36.68;43.07;;
72858;Laerm;62742;52.136;4.500;2023-10-09T04:33:20;40.66;36.55;43.17;;
72858;Laerm;62742;52.136;4.500;2023-10-09T04:36:09;40.61;35.65;43.43;;
72858;Laerm;62742;52.136;4.500;2023-10-09T04:39:02;40.66;36.49;43.17;;
72858;Laerm;62742;52.136;4.500;2023-10-09T04:41:32;40.73;35.90;43.60;;
72858;Laerm;62742;52.136;4.500;2023-10-09T04:44:00;40.71;36.03;43.34;;
72858;Laerm;62742;52.136;4.500;2023-10-09T04:46:46;40.51;36.02;42.99;;
72858;Laerm;62742;52.136;4.500;2023-10-09T04:49:34;40.62;36.07;43.31;;
72858;Laerm;62742;52.136;4.500;2023-10-09T04:52:20;40.86;36.05;43.43;;
72858;Laerm;62742;52.136;4.500;2023-10-09T04:54:57;40.96;36.83;43.54;;
72858;Laerm;62742;52.136;4.500;2023-10-09T04:57:41;40.89;36.82;43.54;;
72858;Laerm;62742;52.136;4.500;2023-10-09T05:00:16;41.16;36.98;43.54;;
72858;Laerm;62742;52.136;4.500;2023-10-09T05:02:57;40.91;36.45;43.69;;
72858;Laerm;62742;52.136;4.500;2023-10-09T05:05:44;40.42;35.27;42.85;;
72858;Laerm;62742;52.136;4.500;2023-10-09T05:08:16;40.41;35.47;43.53;;
72858;Laerm;62742;52.136;4.500;2023-10-09T05:11:03;40.34;35.02;43.30;;
72858;Laerm;62742;52.136;4.500;2023-10-09T05:13:36;40.29;34.76;43.28;;
72858;Laerm;62742;52.136;4.500;2023-10-09T05:16:11;40.43;35.76;43.56;;
72858;Laerm;62742;52.136;4.500;2023-10-09T05:18:54;40.40;35.23;43.01;;
72858;Laerm;62742;52.136;4.500;2023-10-09T05:21:33;40.35;35.38;43.33;;
72858;Laerm;62742;52.136;4.500;2023-10-09T05:24:01;40.41;35.71;43.26;;
72858;Laerm;62742;52.136;4.500;2023-10-09T05:26:48;40.52;35.98;43.45;;
72858;Laerm;62742;52.136;4.500;2023-10-09T05:29:20;40.45;36.01;43.63;;
72858;Laerm;62742;52.136;4.500;2023-10-09T05:32:05;40.52;35.32;44.00;;
72858;Laerm;62742;52.136;4.500;2023-10-09T05:34:42;40.78;36.11;43.75;;
72858;Laerm;62742;52.136;4.500;2023-10-09T05:37:32;40.83;35.99;44.44;;
72858;Laerm;62742;52.136;4.500;2023-10-09T05:40:05;40.76;35.77;43.74;;
72858;Laerm;62742;52.136;4.500;2023-10-09T05:42:46;40.76;36.13;43.66;;
72858;Laerm;62742;52.136;4.500;2023-10-09T05:45:23;40.57;35.96;43.96;;
72858;Laerm;62742;52.136;4.500;2023-10-09T05:48:08;40.60;35.09;44.09;;
72858;Laerm;62742;52.136;4.500;2023-10-09T05:50:44;40.66;36.14;43.81;;
72858;Laerm;62742;52.136;4.500;2023-10-09T05:53:29;40.67;35.24;44.54;;
72858;Laerm;62742;52.136;4.500;2023-10-09T05:56:12;40.65;35.77;43.84;;
72858;Laerm;62742;52.136;4.500;2023-10-09T05:58:57;40.65;35.85;43.72;;
72858;Laerm;62742;52.136;4.500;2023-10-09T06:01:29;40.79;35.40;44.19;;
72858;Laerm;62742;52.136;4.500;2023-10-09T06:04:14;40.70;35.37;43.83;;
72858;Laerm;62742;52.136;4.500;2023-10-09T06:06:45;40.89;35.75;44.12;;
72858;Laerm;62742;52.136;4.500;2023-10-09T06:09:13;40.83;36.09;44.05;;
72858;Laerm;62742;52.136;4.500;2023-10-09T06:11:45;40.80;35.52;43.89;;
72858;Laerm;62742;52.136;4.500;2023-10-09T06:14:17;40.76;35.94;43.81;;
72858;Laerm;62742;52.136;4.500;2023-10-09T06:16:58;40.98;36.42;44.03;;
72858;Laerm;62742;52.136;4.500;2023-10-09T06:19:48;41.15;36.30;44.58;;
72858;Laerm;62742;52.136;4.500;2023-10-09T06:22:15;41.09;36.19;44.23;;
72858;Laerm;62742;52.136;4.500;2023-10-09T06:25:16;40.97;36.34;43.56;;
72858;Laerm;62742;52.136;4.500;2023-10-09T06:27:44;40.96;36.11;43.29;;
72858;Laerm;62742;52.136;4.500;2023-10-09T06:30:23;40.75;35.84;43.93;;
72858;Laerm;62742;52.136;4.500;2023-10-09T06:32:51;40.79;35.74;43.58;;
72858;Laerm;62742;52.136;4.500;2023-10-09T06:35:24;40.65;35.59;43.31;;
72858;Laerm;62742;52.136;4.500;2023-10-09T06:38:00;40.88;35.50;44.24;;
72858;Laerm;62742;52.136;4.500;2023-10-09T06:40:37;40.87;35.87;44.07;;
72858;Laerm;62742;52.136;4.500;2023-10-09T06:43:24;40.99;36.13;45.11;;
72858;Laerm;62742;52.136;4.500;2023-10-09T06:45:55;40.92;36.01;44.39;;
72858;Laerm;62742;52.136;4.500;2023-10-09T06:48:45;40.96;36.28;44.76;;
72858;Laerm;62742;52.136;4.500;2023-10-09T06:51:22;40.75;36.13;44.02;;
72858;Laerm;62742;52.136;4.500;2023-10-09T06:53:56;40.76;36.38;44.07;;
72858;Laerm;62742;52.136;4.500;2023-10-09T06:56:23;40.79;36.26;43.64;;
72858;Laerm;62742;52.136;4.500;2023-10-09T06:59:04;40.81;36.40;43.30;;
72858;Laerm;62742;52.136;4.500;2023-10-09T07:01:41;40.77;36.22;43.35;;
72858;Laerm;62742;52.136;4.500;2023-10-09T07:04:15;40.84;36.58;43.86;;
72858;Laerm;62742;52.136;4.500;2023-10-09T07:06:48;40.71;35.08;43.10;;
72858;Laerm;62742;52.136;4.500;2023-10-09T07:09:15;40.64;36.85;43.48;;
72858;Laerm;62742;52.136;4.500;2023-10-09T07:11:47;40.68;36.07;43.44;;
72858;Laerm;62742;52.136;4.500;2023-10-09T07:14:22;40.87;36.12;43.77;;
72858;Laerm;62742;52.136;4.500;2023-10-09T07:17:06;40.83;36.11;44.32;;
72858;Laerm;62742;52.136;4.500;2023-10-09T07:19:44;41.05;36.34;44.12;;
72858;Laerm;62742;52.136;4.500;2023-10-09T07:22:14;41.11;36.33;44.08;;
72858;Laerm;62742;52.136;4.500;2023-10-09T07:24:50;40.67;36.29;43.32;;
72858;Laerm;62742;52.136;4.500;2023-10-09T07:27:25;40.74;35.88;43.29;;
72858;Laerm;62742;52.136;4.500;2023-10-09T07:30:21;40.86;35.72;43.71;;
72858;Laerm;62742;52.136;4.500;2023-10-09T07:33:07;40.87;35.83;43.28;;
72858;Laerm;62742;52.136;4.500;2023-10-09T07:35:46;41.03;36.15;43.93;;
72858;Laerm;62742;52.136;4.500;2023-10-09T07:38:21;41.08;35.96;43.90;;
72858;Laerm;62742;52.136;4.500;2023-10-09T07:41:02;40.88;36.16;44.54;;
72858;Laerm;62742;52.136;4.500;2023-10-09T07:46:14;40.26;35.25;44.01;;
72858;Laerm;62742;52.136;4.500;2023-10-09T07:49:04;40.13;35.79;43.09;;
72858;Laerm;62742;52.136;4.500;2023-10-09T07:51:39;40.11;35.50;42.79;;
72858;Laerm;62742;52.136;4.500;2023-10-09T07:54:10;40.17;35.41;43.35;;
72858;Laerm;62742;52.136;4.500;2023-10-09T07:56:42;40.04;35.13;43.72;;
72858;Laerm;62742;52.136;4.500;2023-10-09T07:59:14;40.10;35.63;42.65;;
72858;Laerm;62742;52.136;4.500;2023-10-09T08:01:50;40.02;35.61;43.07;;
72858;Laerm;62742;52.136;4.500;2023-10-09T08:04:25;40.05;35.46;42.97;;
72858;Laerm;62742;52.136;4.500;2023-10-09T08:07:04;40.44;35.73;43.31;;
72858;Laerm;62742;52.136;4.500;2023-10-09T08:09:36;40.21;36.00;42.72;;
72858;Laerm;62742;52.136;4.500;2023-10-09T08:12:37;40.13;35.62;42.99;;
72858;Laerm;62742;52.136;4.500;2023-10-09T08:15:11;40.28;36.28;43.29;;
72858;Laerm;62742;52.136;4.500;2023-10-09T08:17:55;40.18;36.05;42.96;;
72858;Laerm;62742;52.136;4.500;2023-10-09T08:20:30;40.27;35.90;42.99;;
72858;Laerm;62742;52.136;4.500;2023-10-09T08:23:20;40.39;36.45;43.02;;
72858;Laerm;62742;52.136;4.500;2023-10-09T08:26:00;40.52;36.09;43.41;;
72858;Laerm;62742;52.136;4.500;2023-10-09T08:28:43;40.38;36.04;43.20;;
72858;Laerm;62742;52.136;4.500;2023-10-09T08:31:13;40.41;36.44;42.88;;
72858;Laerm;62742;52.136;4.500;2023-10-09T08:33:46;40.64;36.42;43.77;;
72858;Laerm;62742;52.136;4.500;2023-10-09T08:36:28;40.74;36.36;43.47;;
72858;Laerm;62742;52.136;4.500;2023-10-09T08:38:56;40.55;36.76;43.43;;
72858;Laerm;62742;52.136;4.500;2023-10-09T08:41:27;40.71;37.33;43.62;;
72858;Laerm;62742;52.136;4.500;2023-10-09T08:43:58;40.79;36.60;43.54;;
72858;Laerm;62742;52.136;4.500;2023-10-09T08:46:27;40.79;36.61;44.15;;
72858;Laerm;62742;52.136;4.500;2023-10-09T08:48:56;40.77;37.15;43.37;;
72858;Laerm;62742;52.136;4.500;2023-10-09T08:51:28;40.51;36.59;43.23;;
72858;Laerm;62742;52.136;4.500;2023-10-09T08:53:56;40.55;36.43;44.66;;
72858;Laerm;62742;52.136;4.500;2023-10-09T08:56:23;40.54;36.61;43.56;;
72858;Laerm;62742;52.136;4.500;2023-10-09T08:58:55;40.77;36.56;44.00;;
72858;Laerm;62742;52.136;4.500;2023-10-09T09:01:23;40.74;36.23;45.08;;
72858;Laerm;62742;52.136;4.500;2023-10-09T09:03:53;40.49;36.26;43.13;;
72858;Laerm;62742;52.136;4.500;2023-10-09T09:06:22;40.66;36.58;43.93;;
72858;Laerm;62742;52.136;4.500;2023-10-09T09:08:51;40.81;36.91;43.90;;
72858;Laerm;62742;52.136;4.500;2023-10-09T09:11:25;40.76;37.19;45.55;;
72858;Laerm;62742;52.136;4.500;2023-10-09T09:16:34;40.62;36.35;43.27;;
72858;Laerm;62742;52.136;4.500;2023-10-09T09:19:07;40.55;36.25;43.47;;
72858;Laerm;62742;52.136;4.500;2023-10-09T09:21:42;40.40;36.38;43.36;;
72858;Laerm;62742;52.136;4.500;2023-10-09T09:24:12;40.43;36.45;43.13;;
72858;Laerm;62742;52.136;4.500;2023-10-09T09:26:43;40.73;36.87;44.29;;
72858;Laerm;62742;52.136;4.500;2023-10-09T09:29:15;40.99;37.29;44.83;;
72858;Laerm;62742;52.136;4.500;2023-10-09T09:31:57;40.87;36.97;44.39;;
72858;Laerm;62742;52.136;4.500;2023-10-09T09:34:23;41.01;36.81;45.19;;
72858;Laerm;62742;52.136;4.500;2023-10-09T09:36:57;40.97;37.54;44.75;;
72858;Laerm;62742;52.136;4.500;2023-10-09T09:39:27;41.20;36.84;45.68;;
72858;Laerm;62742;52.136;4.500;2023-10-09T09:42:00;41.15;37.28;44.72;;
72858;Laerm;62742;52.136;4.500;2023-10-09T09:44:34;41.22;37.57;44.41;;
72858;Laerm;62742;52.136;4.500;2023-10-09T09:47:13;41.37;37.87;45.50;;
72858;Laerm;62742;52.136;4.500;2023-10-09T09:49:42;41.61;38.30;45.37;;
72858;Laerm;62742;52.136;4.500;2023-10-09T09:52:09;41.44;38.08;44.51;;
72858;Laerm;62742;52.136;4.500;2023-10-09T09:54:40;41.67;38.28;46.05;;
72858;Laerm;62742;52.136;4.500;2023-10-09T09:57:07;41.37;37.53;44.94;;
72858;Laerm;62742;52.136;4.500;2023-10-09T09:59:41;41.15;37.43;44.03;;
72858;Laerm;62742;52.136;4.500;2023-10-09T10:02:35;41.13;37.81;45.02;;
72858;Laerm;62742;52.136;4.500;2023-10-09T10:05:08;40.90;37.43;45.79;;
72858;Laerm;62742;52.136;4.500;2023-10-09T10:07:38;41.05;37.78;43.62;;
72858;Laerm;62742;52.136;4.500;2023-10-09T10:13:07;41.02;37.63;43.45;;
72858;Laerm;62742;52.136;4.500;2023-10-09T10:15:58;41.02;37.14;43.36;;
72858;Laerm;62742;52.136;4.500;2023-10-09T10:18:33;41.15;37.26;43.42;;
72858;Laerm;62742;52.136;4.500;2023-10-09T10:21:12;41.28;37.42;44.34;;
72858;Laerm;62742;52.136;4.500;2023-10-09T10:23:44;41.08;37.48;43.59;;
72858;Laerm;62742;52.136;4.500;2023-10-09T10:29:20;41.50;37.92;43.85;;
72858;Laerm;62742;52.136;4.500;2023-10-09T10:31:57;41.51;38.25;44.36;;
72858;Laerm;62742;52.136;4.500;2023-10-09T10:34:25;41.61;37.53;44.65;;
72858;Laerm;62742;52.136;4.500;2023-10-09T10:36:53;41.43;38.33;44.50;;
72858;Laerm;62742;52.136;4.500;2023-10-09T10:39:25;41.44;37.10;44.72;;
72858;Laerm;62742;52.136;4.500;2023-10-09T10:42:14;41.77;38.19;45.19;;
72858;Laerm;62742;52.136;4.500;2023-10-09T10:45:02;41.66;38.26;45.69;;
72858;Laerm;62742;52.136;4.500;2023-10-09T10:47:32;41.82;38.13;45.51;;
72858;Laerm;62742;52.136;4.500;2023-10-09T10:50:02;42.02;38.75;44.58;;
72858;Laerm;62742;52.136;4.500;2023-10-09T10:53:13;41.68;37.41;45.10;;
72858;Laerm;62742;52.136;4.500;2023-10-09T10:55:58;41.57;38.28;44.20;;
72858;Laerm;62742;52.136;4.500;2023-10-09T10:58:43;41.48;37.47;43.64;;
72858;Laerm;62742;52.136;4.500;2023-10-09T11:01:40;41.67;37.50;46.82;;
72858;Laerm;62742;52.136;4.500;2023-10-09T11:04:48;41.94;38.03;45.94;;
72858;Laerm;62742;52.136;4.500;2023-10-09T11:07:40;42.22;38.60;49.12;;
72858;Laerm;62742;52.136;4.500;2023-10-09T11:10:07;42.38;38.36;49.61;;
72858;Laerm;62742;52.136;4.500;2023-10-09T11:12:42;42.13;38.16;45.12;;
72858;Laerm;62742;52.136;4.500;2023-10-09T11:15:12;42.14;38.44;44.98;;
72858;Laerm;62742;52.136;4.500;2023-10-09T11:18:08;41.86;38.68;44.67;;
72858;Laerm;62742;52.136;4.500;2023-10-09T11:20:44;41.97;37.93;44.37;;
72858;Laerm;62742;52.136;4.500;2023-10-09T11:23:44;41.89;38.41;45.76;;
72858;Laerm;62742;52.136;4.500;2023-10-09T11:26:47;43.38;40.02;46.25;;
72858;Laerm;62742;52.136;4.500;2023-10-09T11:29:22;43.39;40.54;46.01;;
72858;Laerm;62742;52.136;4.500;2023-10-09T11:32:06;41.59;38.50;44.70;;
72858;Laerm;62742;52.136;4.500;2023-10-09T11:34:35;41.49;38.65;45.55;;
72858;Laerm;62742;52.136;4.500;2023-10-09T11:37:14;41.54;38.23;44.11;;
72858;Laerm;62742;52.136;4.500;2023-10-09T11:40:00;41.54;38.67;44.11;;
72858;Laerm;62742;52.136;4.500;2023-10-09T11:42:28;41.62;38.22;44.83;;
72858;Laerm;62742;52.136;4.500;2023-10-09T11:45:22;41.77;38.43;44.56;;
72858;Laerm;62742;52.136;4.500;2023-10-09T11:47:58;41.63;38.75;44.52;;
72858;Laerm;62742;52.136;4.500;2023-10-09T11:50:51;41.44;37.44;43.97;;
72858;Laerm;62742;52.136;4.500;2023-10-09T11:53:19;41.62;37.11;44.94;;
72858;Laerm;62742;52.136;4.500;2023-10-09T11:56:06;41.69;38.57;44.47;;
72858;Laerm;62742;52.136;4.500;2023-10-09T11:58:35;41.58;38.48;44.13;;
72858;Laerm;62742;52.136;4.500;2023-10-09T12:01:13;41.52;38.43;43.67;;
72858;Laerm;62742;52.136;4.500;2023-10-09T12:03:44;41.31;38.22;44.02;;
72858;Laerm;62742;52.136;4.500;2023-10-09T12:06:18;41.66;38.53;44.03;;
72858;Laerm;62742;52.136;4.500;2023-10-09T12:08:56;41.58;38.87;44.09;;
72858;Laerm;62742;52.136;4.500;2023-10-09T12:11:24;41.64;38.69;44.35;;
72858;Laerm;62742;52.136;4.500;2023-10-09T12:13:57;41.68;38.52;44.25;;
72858;Laerm;62742;52.136;4.500;2023-10-09T12:16:24;41.77;38.05;45.43;;
72858;Laerm;62742;52.136;4.500;2023-10-09T12:18:54;42.01;38.86;47.13;;
72858;Laerm;62742;52.136;4.500;2023-10-09T12:21:21;42.01;38.49;48.27;;
72858;Laerm;62742;52.136;4.500;2023-10-09T12:23:49;42.10;38.66;46.07;;
72858;Laerm;62742;52.136;4.500;2023-10-09T12:26:16;42.09;39.04;46.30;;
72858;Laerm;62742;52.136;4.500;2023-10-09T12:28:44;42.12;38.99;45.75;;
72858;Laerm;62742;52.136;4.500;2023-10-09T12:31:16;41.85;38.79;45.36;;
72858;Laerm;62742;52.136;4.500;2023-10-09T12:33:46;41.90;38.79;45.98;;
72858;Laerm;62742;52.136;4.500;2023-10-09T12:36:14;41.92;38.27;45.53;;
72858;Laerm;62742;52.136;4.500;2023-10-09T12:38:49;42.10;39.07;46.29;;
72858;Laerm;62742;52.136;4.500;2023-10-09T12:41:25;41.75;38.58;44.52;;
72858;Laerm;62742;52.136;4.500;2023-10-09T12:43:53;41.65;38.54;45.33;;
72858;Laerm;62742;52.136;4.500;2023-10-09T12:46:21;41.65;37.77;44.63;;
72858;Laerm;62742;52.136;4.500;2023-10-09T12:48:52;41.60;38.49;44.02;;
72858;Laerm;62742;52.136;4.500;2023-10-09T12:51:22;41.75;38.13;44.23;;
72858;Laerm;62742;52.136;4.500;2023-10-09T12:53:56;41.70;38.11;45.04;;
72858;Laerm;62742;52.136;4.500;2023-10-09T12:56:28;41.66;37.80;44.74;;
72858;Laerm;62742;52.136;4.500;2023-10-09T12:59:04;41.57;37.98;44.31;;
72858;Laerm;62742;52.136;4.500;2023-10-09T13:01:31;41.62;38.10;44.57;;
72858;Laerm;62742;52.136;4.500;2023-10-09T13:03:59;41.85;38.42;45.49;;
72858;Laerm;62742;52.136;4.500;2023-10-09T13:06:28;41.75;38.33;46.04;;
72858;Laerm;62742;52.136;4.500;2023-10-09T13:08:55;41.78;38.32;45.21;;
72858;Laerm;62742;52.136;4.500;2023-10-09T13:11:26;41.70;38.44;45.36;;
72858;Laerm;62742;52.136;4.500;2023-10-09T13:13:53;41.72;38.25;44.76;;
72858;Laerm;62742;52.136;4.500;2023-10-09T13:16:22;41.81;38.79;45.08;;
72858;Laerm;62742;52.136;4.500;2023-10-09T13:18:54;41.66;38.36;44.60;;
72858;Laerm;62742;52.136;4.500;2023-10-09T13:21:23;41.59;37.88;44.72;;
72858;Laerm;62742;52.136;4.500;2023-10-09T13:23:50;41.67;38.39;44.78;;
72858;Laerm;62742;52.136;4.500;2023-10-09T13:26:19;41.90;38.74;44.81;;
72858;Laerm;62742;52.136;4.500;2023-10-09T13:28:57;42.15;38.62;45.23;;
72858;Laerm;62742;52.136;4.500;2023-10-09T13:31:25;42.23;38.77;45.28;;
72858;Laerm;62742;52.136;4.500;2023-10-09T13:33:54;42.17;39.11;46.91;;
72858;Laerm;62742;52.136;4.500;2023-10-09T13:36:28;42.20;38.84;46.41;;
72858;Laerm;62742;52.136;4.500;2023-10-09T13:38:59;42.09;38.95;45.01;;
72858;Laerm;62742;52.136;4.500;2023-10-09T13:41:47;42.22;38.85;45.28;;
72858;Laerm;62742;52.136;4.500;2023-10-09T13:44:15;42.12;39.13;45.58;;
72858;Laerm;62742;52.136;4.500;2023-10-09T13:46:42;42.06;38.59;45.63;;
72858;Laerm;62742;52.136;4.500;2023-10-09T13:49:10;42.21;37.96;46.16;;
72858;Laerm;62742;52.136;4.500;2023-10-09T13:51:41;42.05;38.38;46.11;;
72858;Laerm;62742;52.136;4.500;2023-10-09T13:54:14;42.23;38.62;45.82;;
72858;Laerm;62742;52.136;4.500;2023-10-09T13:57:03;42.22;38.30;47.46;;
72858;Laerm;62742;52.136;4.500;2023-10-09T13:59:32;42.76;39.36;46.36;;
72858;Laerm;62742;52.136;4.500;2023-10-09T14:02:01;42.61;39.40;46.73;;
72858;Laerm;62742;52.136;4.500;2023-10-09T14:04:36;42.76;39.01;46.49;;
72858;Laerm;62742;52.136;4.500;2023-10-09T14:07:02;42.80;38.88;46.85;;
72858;Laerm;62742;52.136;4.500;2023-10-09T14:09:32;42.68;39.68;47.17;;
72858;Laerm;62742;52.136;4.500;2023-10-09T14:12:06;42.52;39.84;46.85;;
72858;Laerm;62742;52.136;4.500;2023-10-09T14:14:44;42.66;38.17;47.40;;
72858;Laerm;62742;52.136;4.500;2023-10-09T14:17:19;42.84;38.72;46.83;;
72858;Laerm;62742;52.136;4.500;2023-10-09T14:19:54;42.81;39.58;46.74;;
72858;Laerm;62742;52.136;4.500;2023-10-09T14:22:24;42.39;39.19;46.01;;
72858;Laerm;62742;52.136;4.500;2023-10-09T14:24:51;42.36;39.06;45.12;;
72858;Laerm;62742;52.136;4.500;2023-10-09T14:27:24;42.66;39.41;45.41;;
72858;Laerm;62742;52.136;4.500;2023-10-09T14:29:57;42.81;39.79;45.93;;
72858;Laerm;62742;52.136;4.500;2023-10-09T14:32:27;42.80;39.71;46.18;;
72858;Laerm;62742;52.136;4.500;2023-10-09T14:35:04;42.43;39.77;46.02;;
72858;Laerm;62742;52.136;4.500;2023-10-09T14:37:41;42.20;38.31;44.57;;
72858;Laerm;62742;52.136;4.500;2023-10-09T14:40:09;42.22;39.23;45.00;;